Time;durP1;ratioP1;P1;durP2;ratioP2;P2;SDS_P1;SDS_P2;PMS_P1;PMS_P2;Temp;Humidity;BMP_temperature;BMP_pressure;BME280_temperature;BME280_humidity;BME280_pressure;Samples;Min_cycle;Max_cycle;Signal;HPM_P1;HPM_P2
2023/03/25 00:02:20;;;;;;;5.25;1.90;;;;;;;;;;5076582;28;20359;-62
2023/03/25 00:04:49;;;;;;;3.90;1.55;;;;;;;;;;5080038;28;20483;-63
2023/03/25 00:07:15;;;;;;;5.43;1.83;;;;;;;;;;5075958;28;20394;-63
2023/03/25 00:09:40;;;;;;;7.80;2.03;;;;;;;;;;5084629;28;20045;-62
2023/03/25 00:12:05;;;;;;;11.10;1.80;;;;;;;;;;5082045;28;20067;-62
2023/03/25 00:14:31;;;;;;;4.22;1.42;;;;;;;;;;5074701;28;20463;-63
2023/03/25 00:16:57;;;;;;;6.13;1.42;;;;;;;;;;5073752;28;20471;-63
2023/03/25 00:19:24;;;;;;;4.10;1.58;;;;;;;;;;5077514;28;20019;-63
2023/03/25 00:21:50;;;;;;;6.07;1.45;;;;;;;;;;5081228;28;20028;-63
2023/03/25 00:24:16;;;;;;;3.92;1.58;;;;;;;;;;5085377;28;20074;-63
2023/03/25 00:26:45;;;;;;;2.08;1.10;;;;;;;;;;5073118;28;20033;-63
2023/03/25 00:29:11;;;;;;;4.55;1.50;;;;;;;;;;5083811;28;20138;-62
2023/03/25 00:31:37;;;;;;;4.43;1.30;;;;;;;;;;5074084;28;20027;-62
2023/03/25 00:34:02;;;;;;;3.17;1.15;;;;;;;;;;5082469;28;20024;-62
2023/03/25 00:36:27;;;;;;;4.20;1.25;;;;;;;;;;5073467;28;20032;-62
2023/03/25 00:38:53;;;;;;;4.60;1.17;;;;;;;;;;5080334;28;20035;-63
2023/03/25 00:41:24;;;;;;;2.35;1.10;;;;;;;;;;5073693;28;20467;-62
2023/03/25 00:43:56;;;;;;;5.40;1.50;;;;;;;;;;5079928;28;20395;-62
2023/03/25 00:46:22;;;;;;;3.42;1.35;;;;;;;;;;5073710;28;20112;-62
2023/03/25 00:48:48;;;;;;;4.40;1.25;;;;;;;;;;5085250;28;20593;-62
2023/03/25 00:51:18;;;;;;;4.75;1.45;;;;;;;;;;5085498;28;20040;-63
2023/03/25 00:53:43;;;;;;;5.57;1.63;;;;;;;;;;5078855;28;20024;-62
2023/03/25 00:56:08;;;;;;;3.40;1.02;;;;;;;;;;5092777;28;20528;-63
2023/03/25 00:58:34;;;;;;;6.32;1.15;;;;;;;;;;5083973;28;20028;-62
2023/03/25 01:00:59;;;;;;;3.08;0.93;;;;;;;;;;5082456;28;20028;-62
2023/03/25 01:03:25;;;;;;;2.88;1.13;;;;;;;;;;5083319;28;20485;-62
2023/03/25 01:05:53;;;;;;;2.88;0.90;;;;;;;;;;5072850;28;20031;-62
2023/03/25 01:08:24;;;;;;;6.90;1.75;;;;;;;;;;5079850;28;20024;-62
2023/03/25 01:10:49;;;;;;;4.40;1.20;;;;;;;;;;5090866;28;20040;-62
2023/03/25 01:13:14;;;;;;;4.38;1.35;;;;;;;;;;5080757;28;20030;-63
2023/03/25 01:15:40;;;;;;;5.50;0.95;;;;;;;;;;5081342;28;20067;-62
2023/03/25 01:18:05;;;;;;;3.03;1.33;;;;;;;;;;5077802;28;20020;-63
2023/03/25 01:20:30;;;;;;;4.53;1.38;;;;;;;;;;5091459;28;20493;-63
2023/03/25 01:22:55;;;;;;;6.20;1.15;;;;;;;;;;5088191;28;20020;-62
2023/03/25 01:25:21;;;;;;;3.08;0.93;;;;;;;;;;5077611;28;20524;-62
2023/03/25 01:27:46;;;;;;;2.78;0.98;;;;;;;;;;5074511;28;20065;-62
2023/03/25 01:30:12;;;;;;;2.92;1.10;;;;;;;;;;5078547;28;20501;-62
2023/03/25 01:32:37;;;;;;;7.20;1.40;;;;;;;;;;5072481;28;20036;-62
2023/03/25 01:35:04;;;;;;;3.33;1.27;;;;;;;;;;5071716;28;20021;-63
2023/03/25 01:37:32;;;;;;;4.60;1.33;;;;;;;;;;5072545;28;20032;-62
2023/03/25 01:39:58;;;;;;;2.25;0.90;;;;;;;;;;5080810;28;20031;-62
2023/03/25 01:42:23;;;;;;;3.50;1.30;;;;;;;;;;5083761;28;20020;-62
2023/03/25 01:44:51;;;;;;;4.53;1.00;;;;;;;;;;5074421;28;20086;-62
2023/03/25 01:47:17;;;;;;;9.27;1.42;;;;;;;;;;5071480;28;20115;-62
2023/03/25 01:49:43;;;;;;;3.97;1.40;;;;;;;;;;5072220;28;20096;-62
2023/03/25 01:52:17;;;;;;;2.78;1.15;;;;;;;;;;5072019;28;20028;-62
2023/03/25 01:54:42;;;;;;;8.52;1.30;;;;;;;;;;5072228;28;20035;-62
2023/03/25 01:57:10;;;;;;;5.22;1.70;;;;;;;;;;5072189;28;20031;-62
2023/03/25 01:59:36;;;;;;;3.58;1.40;;;;;;;;;;5071944;28;20468;-63
2023/03/25 02:02:02;;;;;;;4.20;1.42;;;;;;;;;;5072834;28;20016;-63
2023/03/25 02:04:33;;;;;;;5.32;1.42;;;;;;;;;;5072864;28;20025;-62
2023/03/25 02:06:59;;;;;;;4.35;1.55;;;;;;;;;;5072141;28;20021;-62
2023/03/25 02:09:25;;;;;;;7.97;1.60;;;;;;;;;;5074800;28;20532;-62
2023/03/25 02:11:53;;;;;;;4.03;1.70;;;;;;;;;;5081638;28;20025;-62
2023/03/25 02:14:21;;;;;;;6.43;1.80;;;;;;;;;;5071579;28;20380;-62
2023/03/25 02:16:46;;;;;;;9.55;1.85;;;;;;;;;;5071730;28;20063;-63
2023/03/25 02:19:44;;;;;;;6.90;2.35;;;;;;;;;;5071579;28;20818;-62
2023/03/25 02:22:24;;;;;;;5.10;1.83;;;;;;;;;;5037933;28;20041;-62
2023/03/25 02:25:00;;;;;;;6.50;1.65;;;;;;;;;;5071661;28;20024;-62
2023/03/25 02:27:45;;;;;;;10.98;2.45;;;;;;;;;;5071403;28;20024;-62
2023/03/25 02:30:28;;;;;;;5.30;1.58;;;;;;;;;;5071852;28;20532;-62
2023/03/25 02:32:54;;;;;;;4.77;1.63;;;;;;;;;;5071638;28;20037;-62
2023/03/25 02:35:27;;;;;;;5.43;1.73;;;;;;;;;;5071225;28;20024;-63
2023/03/25 02:38:01;;;;;;;4.13;1.60;;;;;;;;;;5073217;28;20060;-63
2023/03/25 02:40:30;;;;;;;5.60;1.77;;;;;;;;;;5072396;28;20098;-62
2023/03/25 02:43:17;;;;;;;5.28;2.13;;;;;;;;;;5078693;28;20489;-62
2023/03/25 02:45:54;;;;;;;7.80;2.08;;;;;;;;;;5070927;28;20016;-62
2023/03/25 02:48:22;;;;;;;3.70;1.85;;;;;;;;;;5071643;28;20024;-62
2023/03/25 02:50:51;;;;;;;7.25;2.50;;;;;;;;;;5071320;28;20016;-63
2023/03/25 02:53:19;;;;;;;6.45;2.58;;;;;;;;;;5071040;28;20043;-62
2023/03/25 02:55:46;;;;;;;7.63;2.30;;;;;;;;;;5071601;28;20487;-62
2023/03/25 02:58:15;;;;;;;4.10;1.85;;;;;;;;;;5071173;28;20337;-62
2023/03/25 03:00:41;;;;;;;9.93;2.50;;;;;;;;;;5070891;28;20060;-62
2023/03/25 03:03:07;;;;;;;6.13;1.95;;;;;;;;;;5079940;28;20082;-62
2023/03/25 03:05:37;;;;;;;10.80;2.75;;;;;;;;;;5071291;28;20029;-62
2023/03/25 03:08:13;;;;;;;10.45;2.78;;;;;;;;;;5071095;28;20032;-63
2023/03/25 03:10:38;;;;;;;7.05;2.45;;;;;;;;;;5084313;28;20028;-62
2023/03/25 03:13:22;;;;;;;7.88;1.98;;;;;;;;;;5070919;28;20016;-62
2023/03/25 03:16:03;;;;;;;11.75;2.10;;;;;;;;;;5070930;28;20056;-62
2023/03/25 03:18:33;;;;;;;5.65;1.92;;;;;;;;;;5071562;28;20029;-62
2023/03/25 03:21:06;;;;;;;12.57;2.50;;;;;;;;;;5070431;28;20016;-63
2023/03/25 03:23:58;;;;;;;5.25;1.50;;;;;;;;;;5071072;28;20032;-62
2023/03/25 03:26:27;;;;;;;7.65;2.22;;;;;;;;;;5069062;28;20032;-62
2023/03/25 03:29:11;;;;;;;8.43;2.13;;;;;;;;;;5074234;28;20100;-62
2023/03/25 03:31:44;;;;;;;6.65;2.20;;;;;;;;;;5074631;28;20056;-62
2023/03/25 03:34:13;;;;;;;8.18;1.90;;;;;;;;;;5075497;28;20013;-62
2023/03/25 03:36:42;;;;;;;5.72;1.52;;;;;;;;;;5074398;28;20433;-62
2023/03/25 03:39:14;;;;;;;5.30;1.90;;;;;;;;;;5080409;28;20016;-62
2023/03/25 03:41:42;;;;;;;8.20;2.10;;;;;;;;;;5079400;28;20169;-62
2023/03/25 03:44:15;;;;;;;6.88;2.00;;;;;;;;;;5074378;28;20127;-62
2023/03/25 03:46:44;;;;;;;5.93;2.03;;;;;;;;;;5074073;28;20471;-62
2023/03/25 03:49:14;;;;;;;4.28;1.70;;;;;;;;;;5076522;28;20026;-62
2023/03/25 03:51:47;;;;;;;5.57;1.80;;;;;;;;;;5073907;28;20028;-62
2023/03/25 03:54:15;;;;;;;5.30;1.67;;;;;;;;;;5074010;28;20056;-62
2023/03/25 03:56:48;;;;;;;6.18;2.10;;;;;;;;;;5073310;28;20017;-63
2023/03/25 03:59:23;;;;;;;9.80;1.80;;;;;;;;;;5074377;28;20428;-63
2023/03/25 04:01:52;;;;;;;7.88;2.30;;;;;;;;;;5081939;28;20021;-62
2023/03/25 04:04:19;;;;;;;9.57;1.95;;;;;;;;;;5073962;28;20021;-62
2023/03/25 04:06:55;;;;;;;7.75;2.10;;;;;;;;;;5080493;28;20050;-62
2023/03/25 04:09:33;;;;;;;8.65;1.80;;;;;;;;;;5080835;28;20039;-63
2023/03/25 04:12:08;;;;;;;6.43;1.98;;;;;;;;;;5093909;28;20120;-62
2023/03/25 04:14:34;;;;;;;8.43;1.55;;;;;;;;;;5080227;28;20035;-63
2023/03/25 04:16:59;;;;;;;6.63;2.13;;;;;;;;;;5092894;28;20032;-63
2023/03/25 04:19:25;;;;;;;8.00;2.28;;;;;;;;;;5074706;28;20391;-62
2023/03/25 04:21:50;;;;;;;9.43;2.65;;;;;;;;;;5073226;28;20023;-63
2023/03/25 04:24:18;;;;;;;4.88;2.00;;;;;;;;;;5086507;28;20028;-62
2023/03/25 04:26:43;;;;;;;7.35;2.53;;;;;;;;;;5073470;28;20379;-62
2023/03/25 04:29:09;;;;;;;12.77;2.38;;;;;;;;;;5081988;28;20020;-63
2023/03/25 04:31:34;;;;;;;8.00;2.20;;;;;;;;;;5073450;28;20028;-62
2023/03/25 04:34:01;;;;;;;4.10;1.60;;;;;;;;;;5074078;28;20467;-62
2023/03/25 04:36:36;;;;;;;5.63;2.33;;;;;;;;;;5072904;28;20028;-62
2023/03/25 04:39:02;;;;;;;6.50;2.13;;;;;;;;;;5072842;28;20098;-62
2023/03/25 04:41:27;;;;;;;8.23;2.35;;;;;;;;;;5073572;28;20052;-62
2023/03/25 04:43:52;;;;;;;6.93;2.60;;;;;;;;;;5073036;28;20027;-62
2023/03/25 04:46:18;;;;;;;9.70;2.35;;;;;;;;;;5073058;28;20483;-62
2023/03/25 04:48:44;;;;;;;6.68;2.53;;;;;;;;;;5086274;28;20021;-62
2023/03/25 04:51:11;;;;;;;5.80;1.90;;;;;;;;;;5072681;28;20086;-62
2023/03/25 04:53:37;;;;;;;12.02;2.92;;;;;;;;;;5072990;28;20028;-62
2023/03/25 04:56:03;;;;;;;11.20;2.38;;;;;;;;;;5073038;28;20020;-63
2023/03/25 04:58:29;;;;;;;11.02;3.53;;;;;;;;;;5073084;28;20115;-62
2023/03/25 05:00:54;;;;;;;13.27;2.88;;;;;;;;;;5085820;28;20052;-62
2023/03/25 05:03:23;;;;;;;12.20;2.53;;;;;;;;;;5073588;28;20025;-62
2023/03/25 05:05:49;;;;;;;11.50;2.88;;;;;;;;;;5072714;28;20046;-62
2023/03/25 05:08:14;;;;;;;8.85;2.90;;;;;;;;;;5072828;28;20457;-63
2023/03/25 05:10:42;;;;;;;13.10;2.90;;;;;;;;;;5072781;28;20064;-62
2023/03/25 05:13:07;;;;;;;6.30;2.50;;;;;;;;;;5072959;28;20020;-62
2023/03/25 05:15:40;;;;;;;8.18;2.90;;;;;;;;;;5072522;28;20013;-62
2023/03/25 05:18:09;;;;;;;10.88;2.90;;;;;;;;;;5072905;28;20025;-62
2023/03/25 05:20:38;;;;;;;8.02;2.95;;;;;;;;;;5072638;28;20524;-62
2023/03/25 05:23:04;;;;;;;12.10;3.17;;;;;;;;;;5079992;28;20020;-63
2023/03/25 05:25:33;;;;;;;14.55;3.40;;;;;;;;;;5077038;28;20028;-62
2023/03/25 05:27:58;;;;;;;8.57;3.03;;;;;;;;;;5072158;28;20016;-62
2023/03/25 05:30:31;;;;;;;9.63;3.67;;;;;;;;;;5075039;28;20027;-62
2023/03/25 05:32:58;;;;;;;17.27;3.55;;;;;;;;;;5083014;28;20033;-62
2023/03/25 05:35:25;;;;;;;9.13;3.30;;;;;;;;;;5071994;28;20107;-62
2023/03/25 05:37:51;;;;;;;8.70;2.85;;;;;;;;;;5072493;28;20146;-61
2023/03/25 05:40:16;;;;;;;10.00;2.72;;;;;;;;;;5072576;28;20048;-62
2023/03/25 05:42:47;;;;;;;16.95;3.58;;;;;;;;;;5072392;28;20479;-62
2023/03/25 05:45:14;;;;;;;9.95;3.40;;;;;;;;;;5076375;28;20028;-62
2023/03/25 05:47:40;;;;;;;10.05;3.05;;;;;;;;;;5083131;28;20033;-62
2023/03/25 05:50:07;;;;;;;12.43;3.03;;;;;;;;;;5072866;28;20034;-63
2023/03/25 05:52:32;;;;;;;12.45;3.33;;;;;;;;;;5082218;28;20033;-62
2023/03/25 05:54:57;;;;;;;9.13;3.00;;;;;;;;;;5071971;28;20041;-62
2023/03/25 05:57:22;;;;;;;9.70;3.63;;;;;;;;;;5072352;28;20020;-63
2023/03/25 05:59:48;;;;;;;11.00;3.55;;;;;;;;;;5072709;28;20012;-63
2023/03/25 06:02:14;;;;;;;10.43;3.15;;;;;;;;;;5071557;28;20032;-62
2023/03/25 06:04:41;;;;;;;9.70;3.05;;;;;;;;;;5072329;28;20429;-63
2023/03/25 06:07:12;;;;;;;6.05;2.28;;;;;;;;;;5070812;28;20027;-63
2023/03/25 06:09:44;;;;;;;6.43;2.47;;;;;;;;;;5072405;28;20052;-62
2023/03/25 06:12:10;;;;;;;12.80;2.53;;;;;;;;;;5071347;28;20045;-63
2023/03/25 06:14:35;;;;;;;9.10;2.72;;;;;;;;;;5083616;28;20036;-63
2023/03/25 06:17:01;;;;;;;13.15;3.10;;;;;;;;;;5076880;28;20024;-62
2023/03/25 06:19:26;;;;;;;9.05;2.80;;;;;;;;;;5078315;28;20048;-62
2023/03/25 06:21:52;;;;;;;10.30;3.05;;;;;;;;;;5087956;28;20028;-62
2023/03/25 06:24:17;;;;;;;12.10;3.40;;;;;;;;;;5071657;28;20073;-62
2023/03/25 06:26:43;;;;;;;13.63;2.70;;;;;;;;;;5071714;28;20107;-62
2023/03/25 06:29:08;;;;;;;8.95;3.10;;;;;;;;;;5085112;28;20468;-62
2023/03/25 06:31:33;;;;;;;6.63;2.80;;;;;;;;;;5071127;28;20501;-62
2023/03/25 06:34:00;;;;;;;9.60;3.03;;;;;;;;;;5081054;28;20149;-63
2023/03/25 06:36:26;;;;;;;12.75;3.15;;;;;;;;;;5072155;28;20021;-62
2023/03/25 06:38:52;;;;;;;7.97;3.55;;;;;;;;;;5072726;28;20413;-63
2023/03/25 06:41:19;;;;;;;6.72;2.58;;;;;;;;;;5071765;28;20081;-62
2023/03/25 06:43:44;;;;;;;17.00;3.00;;;;;;;;;;5071368;28;20025;-62
2023/03/25 06:46:10;;;;;;;10.50;2.92;;;;;;;;;;5074291;28;20030;-62
2023/03/25 06:48:35;;;;;;;9.30;3.00;;;;;;;;;;5074650;28;20441;-63
2023/03/25 06:51:00;;;;;;;9.40;3.65;;;;;;;;;;5071257;28;20082;-61
2023/03/25 06:53:26;;;;;;;10.57;3.05;;;;;;;;;;5072095;28;20087;-62
2023/03/25 06:55:51;;;;;;;10.90;3.55;;;;;;;;;;5071370;28;20070;-62
2023/03/25 06:58:16;;;;;;;8.45;3.42;;;;;;;;;;5070580;28;20020;-62
2023/03/25 07:00:42;;;;;;;11.38;4.30;;;;;;;;;;5081120;28;20032;-62
2023/03/25 07:03:08;;;;;;;16.45;5.03;;;;;;;;;;5074844;28;20021;-62
2023/03/25 07:05:33;;;;;;;10.32;3.67;;;;;;;;;;5079517;28;20071;-62
2023/03/25 07:07:58;;;;;;;16.70;8.48;;;;;;;;;;5074706;28;20382;-63
2023/03/25 07:10:24;;;;;;;10.40;4.53;;;;;;;;;;5090328;28;20090;-62
2023/03/25 07:12:49;;;;;;;8.30;3.70;;;;;;;;;;5076221;28;20083;-62
2023/03/25 07:15:15;;;;;;;10.93;3.92;;;;;;;;;;5082160;28;20027;-62
2023/03/25 07:17:41;;;;;;;11.15;3.65;;;;;;;;;;5075712;28;20020;-62
2023/03/25 07:20:07;;;;;;;10.00;3.47;;;;;;;;;;5074711;28;20021;-62
2023/03/25 07:22:33;;;;;;;10.80;4.03;;;;;;;;;;5074008;28;20972;-62
2023/03/25 07:24:58;;;;;;;10.90;3.92;;;;;;;;;;5074773;28;20513;-62
2023/03/25 07:27:24;;;;;;;14.20;3.88;;;;;;;;;;5074447;28;20443;-61
2023/03/25 07:29:49;;;;;;;11.95;3.40;;;;;;;;;;5075155;28;20039;-62
2023/03/25 07:32:15;;;;;;;12.35;3.38;;;;;;;;;;5078899;28;20032;-62
2023/03/25 07:34:40;;;;;;;9.00;2.85;;;;;;;;;;5081661;28;20107;-61
2023/03/25 07:37:07;;;;;;;9.50;3.55;;;;;;;;;;5074778;28;20063;-62
2023/03/25 07:39:32;;;;;;;9.77;3.55;;;;;;;;;;5073956;28;20040;-62
2023/03/25 07:41:57;;;;;;;14.35;3.53;;;;;;;;;;5090593;28;20106;-62
2023/03/25 07:44:22;;;;;;;8.80;3.30;;;;;;;;;;5081965;28;20028;-62
2023/03/25 07:46:48;;;;;;;6.50;3.30;;;;;;;;;;5074262;28;20077;-62
2023/03/25 07:49:14;;;;;;;8.25;3.47;;;;;;;;;;5074008;28;20383;-62
2023/03/25 07:51:39;;;;;;;11.50;3.53;;;;;;;;;;5075329;28;20036;-62
2023/03/25 07:54:05;;;;;;;8.43;2.50;;;;;;;;;;5074058;28;20031;-62
2023/03/25 07:56:30;;;;;;;8.93;3.42;;;;;;;;;;5075668;28;20020;-62
2023/03/25 07:58:55;;;;;;;15.55;4.43;;;;;;;;;;5081810;28;20035;-62
2023/03/25 08:01:20;;;;;;;10.98;2.80;;;;;;;;;;5078044;28;20036;-62
2023/03/25 08:03:46;;;;;;;11.25;3.67;;;;;;;;;;5073909;28;20501;-62
2023/03/25 08:06:11;;;;;;;6.35;3.03;;;;;;;;;;5078147;28;20032;-62
2023/03/25 08:08:36;;;;;;;12.07;3.33;;;;;;;;;;5075046;28;20028;-63
2023/03/25 08:11:02;;;;;;;18.98;4.15;;;;;;;;;;5086740;28;20028;-62
2023/03/25 08:13:27;;;;;;;17.88;4.30;;;;;;;;;;5073179;28;20063;-62
2023/03/25 08:15:52;;;;;;;11.73;4.03;;;;;;;;;;5073834;28;20008;-62
2023/03/25 08:18:18;;;;;;;11.27;4.35;;;;;;;;;;5073951;28;20028;-61
2023/03/25 08:20:43;;;;;;;20.90;4.32;;;;;;;;;;5073093;28;20099;-61
2023/03/25 08:23:17;;;;;;;11.30;3.60;;;;;;;;;;5073488;28;20024;-61
2023/03/25 08:25:42;;;;;;;11.20;3.80;;;;;;;;;;5073344;28;20029;-62
2023/03/25 08:28:07;;;;;;;12.07;4.35;;;;;;;;;;5084774;28;20612;-62
2023/03/25 08:30:38;;;;;;;8.80;3.28;;;;;;;;;;5075790;28;20028;-62
2023/03/25 08:33:05;;;;;;;11.18;3.60;;;;;;;;;;5073127;28;20028;-62
2023/03/25 08:35:31;;;;;;;15.85;3.85;;;;;;;;;;5085891;28;20027;-62
2023/03/25 08:38:00;;;;;;;17.60;4.53;;;;;;;;;;5073417;28;20032;-62
2023/03/25 08:40:25;;;;;;;11.82;4.30;;;;;;;;;;5073807;28;20021;-62
2023/03/25 08:42:51;;;;;;;14.55;3.65;;;;;;;;;;5073485;28;20043;-62
2023/03/25 08:45:16;;;;;;;15.57;4.63;;;;;;;;;;5073069;28;20013;-63
2023/03/25 08:47:42;;;;;;;9.18;3.70;;;;;;;;;;5072659;28;20025;-62
2023/03/25 08:50:07;;;;;;;7.97;3.20;;;;;;;;;;5075382;28;20012;-63
2023/03/25 08:52:32;;;;;;;14.27;4.00;;;;;;;;;;5072396;28;20119;-62
2023/03/25 08:54:58;;;;;;;11.57;4.28;;;;;;;;;;5085880;28;20099;-62
2023/03/25 08:57:23;;;;;;;7.15;3.10;;;;;;;;;;5073161;28;20494;-62
2023/03/25 08:59:49;;;;;;;15.65;4.40;;;;;;;;;;5072984;28;20378;-63
2023/03/25 09:02:14;;;;;;;12.13;4.05;;;;;;;;;;5080833;28;20028;-63
2023/03/25 09:04:40;;;;;;;10.60;3.28;;;;;;;;;;5076948;28;20020;-62
2023/03/25 09:07:09;;;;;;;12.40;3.88;;;;;;;;;;5073346;28;20021;-63
2023/03/25 09:09:34;;;;;;;9.02;3.47;;;;;;;;;;5077130;28;20024;-62
2023/03/25 09:12:00;;;;;;;13.18;4.28;;;;;;;;;;5081143;28;20029;-62
2023/03/25 09:14:25;;;;;;;11.30;4.50;;;;;;;;;;5072912;28;20027;-62
2023/03/25 09:16:50;;;;;;;16.75;4.30;;;;;;;;;;5072521;28;20482;-62
2023/03/25 09:19:15;;;;;;;15.82;4.90;;;;;;;;;;5076508;28;20030;-62
2023/03/25 09:21:41;;;;;;;9.25;3.65;;;;;;;;;;5080434;28;20036;-62
2023/03/25 09:24:07;;;;;;;7.68;3.75;;;;;;;;;;5074529;28;20074;-62
2023/03/25 09:26:33;;;;;;;13.73;4.05;;;;;;;;;;5081871;28;20029;-63
2023/03/25 09:28:59;;;;;;;12.82;4.22;;;;;;;;;;5073265;28;20048;-62
2023/03/25 09:31:25;;;;;;;16.63;4.43;;;;;;;;;;5073075;28;20028;-62
2023/03/25 09:33:50;;;;;;;11.30;4.25;;;;;;;;;;5072442;28;20024;-62
2023/03/25 09:36:16;;;;;;;10.50;3.40;;;;;;;;;;5072906;28;20039;-62
2023/03/25 09:38:41;;;;;;;7.50;3.53;;;;;;;;;;5084213;28;20025;-62
2023/03/25 09:41:33;;;;;;;11.32;4.32;;;;;;;;;;5072763;28;20053;-62
2023/03/25 09:44:12;;;;;;;13.30;4.15;;;;;;;;;;5072717;28;20020;-62
2023/03/25 09:46:38;;;;;;;11.77;3.97;;;;;;;;;;5072412;28;20052;-62
2023/03/25 09:49:04;;;;;;;13.10;4.15;;;;;;;;;;5071777;28;20166;-61
2023/03/25 09:51:31;;;;;;;9.50;3.45;;;;;;;;;;5071531;28;20032;-61
2023/03/25 09:53:59;;;;;;;18.30;4.45;;;;;;;;;;5072176;28;20079;-62
2023/03/25 09:56:29;;;;;;;8.52;3.60;;;;;;;;;;5072318;28;20032;-61
2023/03/25 09:59:04;;;;;;;9.55;3.88;;;;;;;;;;5072337;28;20383;-61
2023/03/25 10:01:33;;;;;;;15.95;3.88;;;;;;;;;;5072016;28;20020;-62
2023/03/25 10:03:59;;;;;;;17.00;3.63;;;;;;;;;;5071921;28;20042;-60
2023/03/25 10:06:25;;;;;;;21.20;5.13;;;;;;;;;;5071953;28;20383;-61
2023/03/25 10:09:17;;;;;;;10.27;4.07;;;;;;;;;;5071990;28;20020;-61
2023/03/25 10:11:45;;;;;;;10.40;3.80;;;;;;;;;;5047946;28;20037;-61
2023/03/25 10:14:25;;;;;;;9.43;2.88;;;;;;;;;;5071692;28;20020;-61
2023/03/25 10:16:50;;;;;;;10.05;3.55;;;;;;;;;;5072283;28;20107;-61
2023/03/25 10:19:34;;;;;;;10.27;3.47;;;;;;;;;;5071824;28;20534;-61
2023/03/25 10:21:59;;;;;;;11.80;4.13;;;;;;;;;;5071420;28;20073;-61
2023/03/25 10:24:26;;;;;;;7.38;3.28;;;;;;;;;;5071819;28;20025;-63
2023/03/25 10:26:52;;;;;;;8.45;3.75;;;;;;;;;;5077051;28;20412;-62
2023/03/25 10:29:43;;;;;;;10.37;3.70;;;;;;;;;;5071398;28;20158;-61
2023/03/25 10:32:16;;;;;;;12.55;4.05;;;;;;;;;;5068063;28;20294;-64
2023/03/25 10:34:48;;;;;;;9.82;3.92;;;;;;;;;;5079050;28;20027;-62
2023/03/25 10:37:16;;;;;;;16.35;4.05;;;;;;;;;;5075456;28;20089;-61
2023/03/25 10:39:44;;;;;;;12.55;4.28;;;;;;;;;;5080390;28;20064;-62
2023/03/25 10:42:19;;;;;;;11.63;4.78;;;;;;;;;;5078173;28;20020;-62
2023/03/25 10:44:45;;;;;;;10.57;3.90;;;;;;;;;;5078183;28;20509;-61
2023/03/25 10:47:12;;;;;;;15.40;5.15;;;;;;;;;;5075176;28;20020;-62
2023/03/25 10:49:40;;;;;;;8.45;4.43;;;;;;;;;;5085246;28;20047;-62
2023/03/25 10:52:05;;;;;;;12.68;4.50;;;;;;;;;;5067756;28;20032;-61
2023/03/25 10:54:33;;;;;;;10.68;4.05;;;;;;;;;;5074132;28;20028;-62
2023/03/25 10:57:00;;;;;;;10.32;4.25;;;;;;;;;;5083949;28;20031;-64
2023/03/25 10:59:34;;;;;;;15.77;4.60;;;;;;;;;;5057025;28;20032;-61
2023/03/25 11:02:02;;;;;;;17.98;4.75;;;;;;;;;;5074465;28;20019;-62
2023/03/25 11:04:33;;;;;;;13.05;4.88;;;;;;;;;;5075066;28;20012;-62
2023/03/25 11:06:59;;;;;;;12.38;4.55;;;;;;;;;;5075034;28;20016;-62
2023/03/25 11:09:26;;;;;;;18.02;5.63;;;;;;;;;;5077813;28;20485;-63
2023/03/25 11:11:52;;;;;;;16.95;4.72;;;;;;;;;;5084054;28;20123;-63
2023/03/25 11:14:22;;;;;;;17.85;5.63;;;;;;;;;;5080447;28;20052;-63
2023/03/25 11:16:55;;;;;;;14.38;5.78;;;;;;;;;;5074083;28;20380;-62
2023/03/25 11:19:35;;;;;;;21.30;6.25;;;;;;;;;;5074139;28;20025;-62
2023/03/25 11:22:06;;;;;;;16.52;5.85;;;;;;;;;;5057046;28;20566;-62
2023/03/25 11:24:33;;;;;;;15.07;6.00;;;;;;;;;;5074486;28;20091;-62
2023/03/25 11:26:59;;;;;;;13.13;4.45;;;;;;;;;;5069440;28;20378;-62
2023/03/25 11:29:25;;;;;;;16.58;5.28;;;;;;;;;;5073837;28;20029;-62
2023/03/25 11:31:54;;;;;;;21.25;5.55;;;;;;;;;;5071091;28;20027;-62
2023/03/25 11:34:21;;;;;;;14.00;4.97;;;;;;;;;;5085750;28;20094;-61
2023/03/25 11:36:46;;;;;;;13.05;5.25;;;;;;;;;;5077357;28;20031;-62
2023/03/25 11:39:17;;;;;;;16.47;5.10;;;;;;;;;;5074973;28;20021;-62
2023/03/25 11:41:44;;;;;;;16.15;5.55;;;;;;;;;;5074871;28;20633;-62
2023/03/25 11:44:17;;;;;;;15.93;5.80;;;;;;;;;;5074039;28;20055;-61
2023/03/25 11:46:44;;;;;;;13.50;5.03;;;;;;;;;;5048369;28;20861;-61
2023/03/25 11:49:10;;;;;;;22.20;5.22;;;;;;;;;;5044804;28;20914;-62
2023/03/25 11:51:36;;;;;;;12.95;4.70;;;;;;;;;;5037333;28;20957;-62
2023/03/25 11:54:04;;;;;;;8.50;3.80;;;;;;;;;;5033018;28;20031;-62
2023/03/25 11:56:34;;;;;;;12.82;5.13;;;;;;;;;;5048652;28;20032;-62
2023/03/25 11:59:00;;;;;;;9.93;4.45;;;;;;;;;;5038583;28;20025;-62
2023/03/25 12:01:36;;;;;;;19.40;4.30;;;;;;;;;;5037070;28;20027;-61
2023/03/25 12:04:06;;;;;;;13.70;4.22;;;;;;;;;;5046200;28;20082;-62
2023/03/25 12:06:31;;;;;;;10.95;3.72;;;;;;;;;;5073680;28;21447;-61
2023/03/25 12:08:58;;;;;;;9.60;3.60;;;;;;;;;;5073613;28;20028;-61
2023/03/25 12:11:30;;;;;;;10.60;3.63;;;;;;;;;;5086321;28;21347;-61
2023/03/25 12:14:04;;;;;;;9.02;3.90;;;;;;;;;;5073744;28;20036;-61
2023/03/25 12:16:42;;;;;;;12.90;3.92;;;;;;;;;;5084400;28;20048;-61
2023/03/25 12:19:07;;;;;;;15.68;3.53;;;;;;;;;;5073432;28;20025;-62
2023/03/25 12:21:51;;;;;;;17.05;3.90;;;;;;;;;;5071268;28;20035;-61
2023/03/25 12:24:35;;;;;;;15.07;3.60;;;;;;;;;;5076560;28;20082;-61
2023/03/25 12:27:00;;;;;;;9.43;2.70;;;;;;;;;;5073798;28;20033;-62
2023/03/25 12:29:46;;;;;;;12.20;3.80;;;;;;;;;;5073831;28;20118;-63
2023/03/25 12:32:30;;;;;;;10.70;2.78;;;;;;;;;;5076369;28;20291;-62
2023/03/25 12:34:55;;;;;;;11.18;4.07;;;;;;;;;;5078280;28;20016;-62
2023/03/25 12:37:26;;;;;;;24.03;3.80;;;;;;;;;;5082695;28;20045;-62
2023/03/25 12:40:16;;;;;;;8.05;3.35;;;;;;;;;;5077347;28;20274;-62
2023/03/25 12:42:45;;;;;;;12.13;3.65;;;;;;;;;;5072933;28;20025;-61
2023/03/25 12:45:23;;;;;;;8.90;4.32;;;;;;;;;;5076746;28;20244;-62
2023/03/25 12:47:48;;;;;;;12.60;4.15;;;;;;;;;;5075350;28;20047;-61
2023/03/25 12:50:18;;;;;;;7.82;3.78;;;;;;;;;;5077261;28;20471;-62
2023/03/25 12:52:46;;;;;;;15.27;3.63;;;;;;;;;;5072718;28;20585;-61
2023/03/25 12:55:24;;;;;;;6.90;3.08;;;;;;;;;;5073649;28;20059;-61
2023/03/25 12:58:08;;;;;;;8.70;2.03;;;;;;;;;;5072715;28;20028;-61
2023/03/25 13:00:42;;;;;;;7.22;2.38;;;;;;;;;;5081459;28;20027;-61
2023/03/25 13:03:18;;;;;;;10.13;2.50;;;;;;;;;;5088808;28;20024;-62
2023/03/25 13:05:43;;;;;;;10.70;2.38;;;;;;;;;;5084566;28;20069;-61
2023/03/25 13:08:15;;;;;;;9.20;3.17;;;;;;;;;;5049797;28;20391;-61
2023/03/25 13:10:42;;;;;;;4.47;2.42;;;;;;;;;;5059060;28;21127;-61
2023/03/25 13:13:16;;;;;;;9.30;2.90;;;;;;;;;;5047225;28;20081;-62
2023/03/25 13:15:51;;;;;;;7.38;3.28;;;;;;;;;;5053157;28;20020;-61
2023/03/25 13:18:16;;;;;;;10.27;2.95;;;;;;;;;;5084619;28;20020;-61
2023/03/25 13:20:44;;;;;;;8.00;3.20;;;;;;;;;;5062429;28;20394;-61
2023/03/25 13:23:12;;;;;;;9.13;3.42;;;;;;;;;;5063978;28;21136;-62
2023/03/25 13:25:37;;;;;;;5.55;1.92;;;;;;;;;;5055130;28;20024;-65
2023/03/25 13:28:03;;;;;;;4.43;2.20;;;;;;;;;;5056852;28;20029;-62
2023/03/25 13:30:33;;;;;;;6.18;2.60;;;;;;;;;;5047304;28;20374;-62
2023/03/25 13:33:03;;;;;;;12.20;2.70;;;;;;;;;;5056792;28;20024;-61
2023/03/25 13:35:48;;;;;;;6.95;2.80;;;;;;;;;;5049734;28;20043;-61
2023/03/25 13:38:18;;;;;;;9.73;2.72;;;;;;;;;;5043690;28;20031;-61
2023/03/25 13:40:58;;;;;;;10.35;2.80;;;;;;;;;;5074076;28;20113;-61
2023/03/25 13:43:31;;;;;;;6.25;2.55;;;;;;;;;;5071723;28;20041;-61
2023/03/25 13:46:11;;;;;;;11.38;3.28;;;;;;;;;;5076373;28;20021;-61
2023/03/25 13:48:45;;;;;;;9.95;2.97;;;;;;;;;;5071660;28;20032;-62
2023/03/25 13:51:10;;;;;;;5.05;2.67;;;;;;;;;;5081758;28;20024;-62
2023/03/25 13:53:38;;;;;;;6.78;2.90;;;;;;;;;;5070947;28;20028;-62
2023/03/25 13:56:06;;;;;;;6.20;2.25;;;;;;;;;;5080697;28;20055;-62
2023/03/25 13:58:54;;;;;;;4.15;2.20;;;;;;;;;;5072285;28;20032;-62
2023/03/25 14:01:34;;;;;;;6.07;2.55;;;;;;;;;;5073232;28;20476;-62
2023/03/25 14:04:25;;;;;;;5.13;2.10;;;;;;;;;;5072013;28;20060;-61
2023/03/25 14:07:10;;;;;;;4.15;2.05;;;;;;;;;;5047137;28;20483;-62
2023/03/25 14:09:35;;;;;;;;;;;;;;;;;;5071279;28;20091;-61
2023/03/25 14:12:14;;;;;;;8.43;2.20;;;;;;;;;;5076551;28;19916;-62
2023/03/25 14:14:44;;;;;;;6.88;2.13;;;;;;;;;;5071288;28;20073;-62
2023/03/25 14:17:11;;;;;;;7.70;2.63;;;;;;;;;;5074979;28;20039;-61
2023/03/25 14:19:37;;;;;;;6.40;2.65;;;;;;;;;;5071244;28;20033;-63
2023/03/25 14:22:21;;;;;;;10.23;2.50;;;;;;;;;;5073321;28;20021;-62
2023/03/25 14:24:47;;;;;;;8.88;2.78;;;;;;;;;;5072105;28;20119;-62
2023/03/25 14:27:19;;;;;;;8.98;2.50;;;;;;;;;;5073753;28;20068;-63
2023/03/25 14:29:57;;;;;;;11.05;2.67;;;;;;;;;;5071723;28;20035;-62
2023/03/25 14:32:22;;;;;;;7.57;2.53;;;;;;;;;;5071252;28;20477;-62
2023/03/25 14:34:48;;;;;;;9.30;3.45;;;;;;;;;;5070775;28;20028;-61
2023/03/25 14:37:17;;;;;;;8.00;2.63;;;;;;;;;;5082089;28;20071;-61
2023/03/25 14:39:43;;;;;;;8.93;3.30;;;;;;;;;;5071223;28;20089;-61
2023/03/25 14:42:32;;;;;;;12.27;3.42;;;;;;;;;;5081071;28;20020;-61
2023/03/25 14:45:16;;;;;;;10.00;3.33;;;;;;;;;;5041419;28;20055;-62
2023/03/25 14:47:52;;;;;;;9.57;3.10;;;;;;;;;;5083702;28;20498;-61
2023/03/25 14:50:20;;;;;;;15.80;3.85;;;;;;;;;;5076050;28;20024;-61